createdAt,value
2023-05-19T00:01:19.331Z,7.12
2023-05-19T00:03:46.837Z,7.16
2023-05-19T00:06:14.546Z,7.18
2023-05-19T00:08:42.318Z,7.20
2023-05-19T00:11:09.925Z,7.23
2023-05-19T00:13:37.433Z,7.26
2023-05-19T00:16:06.185Z,7.27
2023-05-19T00:18:34.676Z,7.20
2023-05-19T00:21:02.283Z,7.13
2023-05-19T00:23:29.832Z,7.10
2023-05-19T00:25:57.418Z,7.08
2023-05-19T00:28:24.944Z,7.05
2023-05-19T00:30:52.535Z,7.04
2023-05-19T00:33:20.080Z,7.02
2023-05-19T00:35:47.589Z,7.06
2023-05-19T00:38:15.137Z,7.06
2023-05-19T00:40:43.008Z,7.08
2023-05-19T00:43:10.659Z,7.08
2023-05-19T00:45:38.198Z,7.07
2023-05-19T00:48:05.712Z,7.07
2023-05-19T00:50:33.556Z,7.05
2023-05-19T00:53:01.589Z,7.06
2023-05-19T00:55:29.178Z,7.09
2023-05-19T00:57:56.776Z,7.12
2023-05-19T01:00:24.312Z,7.14
2023-05-19T01:02:51.931Z,7.16
2023-05-19T01:05:19.494Z,7.18
2023-05-19T01:07:47.321Z,7.18
2023-05-19T01:10:14.826Z,7.19
2023-05-19T01:12:42.366Z,7.18
2023-05-19T01:15:10.111Z,7.15
2023-05-19T01:17:37.675Z,7.13
2023-05-19T01:20:05.281Z,7.12
2023-05-19T01:22:32.865Z,7.09
2023-05-19T01:25:00.373Z,7.09
2023-05-19T01:27:27.906Z,7.08
2023-05-19T01:29:55.508Z,7.09
2023-05-19T01:32:23.111Z,7.08
2023-05-19T01:34:50.719Z,7.08
2023-05-19T01:37:18.262Z,7.10
2023-05-19T01:39:45.913Z,7.13
2023-05-19T01:42:13.427Z,7.14
2023-05-19T01:44:40.948Z,7.15
2023-05-19T01:47:08.500Z,7.16
2023-05-19T01:49:36.082Z,7.16
2023-05-19T01:52:03.731Z,7.17
2023-05-19T01:54:31.329Z,7.17
2023-05-19T01:56:59.209Z,7.18
2023-05-19T01:59:26.781Z,7.16
2023-05-19T02:01:54.393Z,7.14
2023-05-19T02:04:22.137Z,7.11
2023-05-19T02:06:49.779Z,7.07
2023-05-19T02:09:17.338Z,7.07
2023-05-19T02:11:44.833Z,7.06
2023-05-19T02:14:12.422Z,7.05
2023-05-19T02:16:39.999Z,7.07
2023-05-19T02:19:07.561Z,7.06
2023-05-19T02:21:35.171Z,7.04
2023-05-19T02:24:02.739Z,7.06
2023-05-19T02:26:30.998Z,7.08
2023-05-19T02:28:58.523Z,7.09
2023-05-19T02:31:26.203Z,7.11
2023-05-19T02:33:53.725Z,7.11
2023-05-19T02:36:21.258Z,7.14
2023-05-19T02:38:51.346Z,7.14
2023-05-19T02:41:18.832Z,7.14
2023-05-19T02:43:46.411Z,7.14
2023-05-19T02:46:14.038Z,7.12
2023-05-19T02:48:41.622Z,7.11
2023-05-19T02:51:09.194Z,7.09
2023-05-19T02:53:36.690Z,7.08
2023-05-19T02:56:04.552Z,7.07
2023-05-19T02:58:32.200Z,7.08
2023-05-19T03:01:01.620Z,7.09
2023-05-19T03:03:29.305Z,7.10
2023-05-19T03:05:56.954Z,7.11
2023-05-19T03:08:24.515Z,7.12
2023-05-19T03:10:52.037Z,7.12
2023-05-19T03:13:19.636Z,7.11
2023-05-19T03:15:47.534Z,7.11
2023-05-19T03:18:15.406Z,7.12
2023-05-19T03:20:44.728Z,7.15
2023-05-19T03:23:12.639Z,7.15
2023-05-19T03:25:40.188Z,7.15
2023-05-19T03:28:07.737Z,7.17
2023-05-19T03:30:35.474Z,7.17
2023-05-19T03:33:03.130Z,7.18
2023-05-19T03:35:30.899Z,7.17
2023-05-19T03:37:58.449Z,7.16
2023-05-19T03:40:25.987Z,7.13
2023-05-19T03:42:54.543Z,7.11
2023-05-19T03:45:22.089Z,7.10
2023-05-19T03:47:49.637Z,7.09
2023-05-19T03:50:17.198Z,7.09
2023-05-19T03:52:46.543Z,7.09
2023-05-19T03:55:20.211Z,7.08
2023-05-19T03:57:48.783Z,7.07
2023-05-19T04:00:16.777Z,7.07
2023-05-19T04:02:44.590Z,7.08
2023-05-19T04:05:12.271Z,7.06
2023-05-19T04:07:39.766Z,7.05
2023-05-19T04:10:07.290Z,7.05
2023-05-19T04:12:34.806Z,7.06
2023-05-19T04:15:02.351Z,7.08
2023-05-19T04:17:29.950Z,7.12
2023-05-19T04:19:57.540Z,7.15
2023-05-19T04:22:24.999Z,7.17
2023-05-19T04:24:53.126Z,7.17
2023-05-19T04:27:22.225Z,7.19
2023-05-19T04:29:50.050Z,7.19
2023-05-19T04:32:18.017Z,7.19
2023-05-19T04:34:46.070Z,7.15
2023-05-19T04:37:16.620Z,7.11
2023-05-19T04:39:45.512Z,7.09
2023-05-19T04:42:19.337Z,7.07
2023-05-19T04:44:51.806Z,7.06
2023-05-19T04:47:21.560Z,7.06
2023-05-19T04:49:49.234Z,7.05
2023-05-19T04:52:22.952Z,7.05
2023-05-19T04:54:50.722Z,7.03
2023-05-19T04:57:18.811Z,7.05
2023-05-19T04:59:46.614Z,7.09
2023-05-19T05:02:14.181Z,7.11
2023-05-19T05:04:44.174Z,7.14
2023-05-19T05:07:11.767Z,7.14
2023-05-19T05:09:39.338Z,7.11
2023-05-19T05:12:08.041Z,7.12
2023-05-19T05:14:35.756Z,7.13
2023-05-19T05:17:03.364Z,7.17
2023-05-19T05:19:31.007Z,7.20
2023-05-19T05:21:58.792Z,7.22
2023-05-19T05:24:26.366Z,7.21
2023-05-19T05:26:53.894Z,7.25
2023-05-19T05:29:21.663Z,7.27
2023-05-19T05:31:49.174Z,7.26
2023-05-19T05:34:16.734Z,7.26
2023-05-19T05:36:44.468Z,7.29
2023-05-19T05:39:12.135Z,7.36
2023-05-19T05:41:39.732Z,7.41
2023-05-19T05:44:07.298Z,7.43
2023-05-19T05:46:34.985Z,7.44
2023-05-19T05:49:02.713Z,7.46
2023-05-19T05:51:32.937Z,7.51
2023-05-19T05:54:00.641Z,7.53
2023-05-19T05:56:28.659Z,7.55
2023-05-19T05:58:56.869Z,7.53
2023-05-19T06:01:24.515Z,7.51
2023-05-19T06:03:52.087Z,7.52
2023-05-19T06:06:19.664Z,7.54
2023-05-19T06:08:47.145Z,7.56
2023-05-19T06:11:14.656Z,7.59
2023-05-19T06:13:42.294Z,7.59
2023-05-19T06:16:09.988Z,7.62
2023-05-19T06:18:37.729Z,7.68
2023-05-19T06:21:05.308Z,7.67
2023-05-19T06:23:32.904Z,7.67
2023-05-19T06:26:00.415Z,7.72
2023-05-19T06:28:27.933Z,7.77
2023-05-19T06:30:55.521Z,7.80
2023-05-19T06:33:23.086Z,7.85
2023-05-19T06:35:51.102Z,7.92
2023-05-19T06:38:18.619Z,8.05
2023-05-19T06:40:46.147Z,8.08
2023-05-19T06:43:13.691Z,8.08
2023-05-19T06:45:41.263Z,8.13
2023-05-19T06:48:08.869Z,8.15
2023-05-19T06:50:36.572Z,8.13
2023-05-19T06:53:04.206Z,8.13
2023-05-19T06:55:32.379Z,8.16
2023-05-19T06:57:59.957Z,8.15
2023-05-19T07:00:27.528Z,8.14
2023-05-19T07:02:55.382Z,8.22
2023-05-19T07:05:23.078Z,8.27
2023-05-19T07:07:50.650Z,8.32
2023-05-19T07:10:18.180Z,8.36
2023-05-19T07:12:45.791Z,8.40
2023-05-19T07:15:13.298Z,8.38
2023-05-19T07:17:40.877Z,8.37
2023-05-19T07:20:10.154Z,8.42
2023-05-19T07:22:39.819Z,8.48
2023-05-19T07:25:07.554Z,8.55
2023-05-19T07:27:35.165Z,8.62
2023-05-19T07:30:04.012Z,8.64
2023-05-19T07:32:31.607Z,8.67
2023-05-19T07:34:59.155Z,8.75
2023-05-19T07:37:26.781Z,8.82
2023-05-19T07:39:54.370Z,8.88
2023-05-19T07:42:22.117Z,8.94
2023-05-19T07:44:49.646Z,8.98
2023-05-19T07:47:17.132Z,8.97
2023-05-19T07:49:44.716Z,8.95
2023-05-19T07:52:12.197Z,8.97
2023-05-19T07:54:39.750Z,9.03
2023-05-19T07:57:07.363Z,9.06
2023-05-19T07:59:34.883Z,9.10
2023-05-19T08:02:02.490Z,9.13
2023-05-19T08:04:30.268Z,9.14
2023-05-19T08:06:57.863Z,9.20
2023-05-19T08:09:25.371Z,9.25
2023-05-19T08:11:53.116Z,9.30
2023-05-19T08:14:22.804Z,9.33
2023-05-19T08:16:50.439Z,9.36
2023-05-19T08:19:18.017Z,9.42
2023-05-19T08:21:45.645Z,9.51
2023-05-19T08:24:13.554Z,9.56
2023-05-19T08:26:41.150Z,9.60
2023-05-19T08:29:08.709Z,9.65
2023-05-19T08:31:36.467Z,9.74
2023-05-19T08:34:04.095Z,9.78
2023-05-19T08:36:31.630Z,9.84
2023-05-19T08:38:59.137Z,9.88
2023-05-19T08:41:26.696Z,9.91
2023-05-19T08:43:54.168Z,9.98
2023-05-19T08:46:21.728Z,10.07
2023-05-19T08:48:49.396Z,10.13
2023-05-19T08:51:16.894Z,10.15
2023-05-19T08:53:45.277Z,10.19
2023-05-19T08:56:13.062Z,10.25
2023-05-19T08:58:41.482Z,10.28
2023-05-19T09:01:09.262Z,10.32
2023-05-19T09:03:39.844Z,10.38
2023-05-19T09:06:08.777Z,10.41
2023-05-19T09:08:37.279Z,10.48
2023-05-19T09:11:04.878Z,10.55
2023-05-19T09:13:32.487Z,10.57
2023-05-19T09:16:00.020Z,10.58
2023-05-19T09:18:27.711Z,10.61
2023-05-19T09:20:55.206Z,10.66
2023-05-19T09:23:24.928Z,10.70
2023-05-19T09:25:52.491Z,10.67
2023-05-19T09:28:20.039Z,10.69
2023-05-19T09:30:47.589Z,10.73
2023-05-19T09:33:16.537Z,10.94
2023-05-19T09:35:44.086Z,11.02
2023-05-19T09:38:12.184Z,11.04
2023-05-19T09:40:39.698Z,11.03
2023-05-19T09:43:07.267Z,10.97
2023-05-19T09:45:35.042Z,10.95
2023-05-19T09:48:03.144Z,10.89
2023-05-19T09:50:30.944Z,10.91
2023-05-19T09:52:58.634Z,10.99
2023-05-19T09:55:26.354Z,11.09
2023-05-19T09:57:54.024Z,11.14
2023-05-19T10:00:21.574Z,11.10
2023-05-19T10:02:50.537Z,11.09
2023-05-19T10:05:20.216Z,11.15
2023-05-19T10:07:48.509Z,11.11
2023-05-19T10:10:16.273Z,11.03
2023-05-19T10:12:43.857Z,11.07
2023-05-19T10:15:11.797Z,11.14
2023-05-19T10:17:40.012Z,11.23
2023-05-19T10:20:08.904Z,11.30
2023-05-19T10:22:36.401Z,11.41
2023-05-19T10:25:04.111Z,11.48
2023-05-19T10:27:31.614Z,11.56
2023-05-19T10:29:59.131Z,11.61
2023-05-19T10:32:26.715Z,11.55
2023-05-19T10:34:54.407Z,11.57
2023-05-19T10:37:22.110Z,11.57
2023-05-19T10:39:49.724Z,11.60
2023-05-19T10:42:17.439Z,11.62
2023-05-19T10:44:44.971Z,11.76
2023-05-19T10:47:12.836Z,11.81
2023-05-19T10:49:40.561Z,11.77
2023-05-19T10:52:08.098Z,11.76
2023-05-19T10:54:39.222Z,11.80
2023-05-19T10:57:08.079Z,11.84
2023-05-19T10:59:37.207Z,11.87
2023-05-19T11:02:05.096Z,11.92
2023-05-19T11:04:32.884Z,11.90
2023-05-19T11:07:00.414Z,11.88
2023-05-19T11:09:39.713Z,11.93
2023-05-19T11:12:08.051Z,12.05
2023-05-19T11:14:36.244Z,12.20
2023-05-19T11:17:05.660Z,12.31
2023-05-19T11:19:33.428Z,12.32
2023-05-19T11:22:01.422Z,12.31
2023-05-19T11:24:28.935Z,12.36
2023-05-19T11:26:56.698Z,12.43
2023-05-19T11:29:24.303Z,12.44
2023-05-19T11:31:51.958Z,12.53
2023-05-19T11:34:19.677Z,12.51
2023-05-19T11:36:48.298Z,12.40
2023-05-19T11:39:15.868Z,12.35
2023-05-19T11:41:43.388Z,12.43
2023-05-19T11:44:11.858Z,12.54
2023-05-19T11:46:39.564Z,12.58
2023-05-19T11:49:07.154Z,12.50
2023-05-19T11:51:34.761Z,12.49
2023-05-19T11:54:03.192Z,12.53
2023-05-19T11:56:30.914Z,12.67
2023-05-19T11:58:58.465Z,12.69
2023-05-19T12:01:27.113Z,12.60
2023-05-19T12:03:54.793Z,12.59
2023-05-19T12:06:22.587Z,12.74
2023-05-19T12:08:50.173Z,12.88
2023-05-19T12:11:18.155Z,13.02
2023-05-19T12:13:46.517Z,13.14
2023-05-19T12:16:14.251Z,13.30
2023-05-19T12:18:42.058Z,13.40
2023-05-19T12:21:09.926Z,13.41
2023-05-19T12:23:37.436Z,13.38
2023-05-19T12:26:04.965Z,13.35
2023-05-19T12:28:32.701Z,13.48
2023-05-19T12:31:00.922Z,13.60
2023-05-19T12:33:28.443Z,13.69
2023-05-19T12:35:56.374Z,13.80
2023-05-19T12:38:23.900Z,13.95
2023-05-19T12:40:51.542Z,14.11
2023-05-19T12:43:19.051Z,14.24
2023-05-19T12:45:46.681Z,14.29
2023-05-19T12:48:16.102Z,14.18
2023-05-19T12:50:45.004Z,14.16
2023-05-19T12:53:13.170Z,14.19
2023-05-19T12:55:42.172Z,14.18
2023-05-19T12:58:09.796Z,14.16
2023-05-19T13:00:37.444Z,14.19
2023-05-19T13:03:05.666Z,14.28
2023-05-19T13:05:37.067Z,14.38
2023-05-19T13:08:04.680Z,14.50
2023-05-19T13:10:33.113Z,14.48
2023-05-19T13:13:01.173Z,14.56
2023-05-19T13:15:31.645Z,14.65
2023-05-19T13:17:59.270Z,14.71
2023-05-19T13:20:28.496Z,14.85
2023-05-19T13:22:57.095Z,15.05
2023-05-19T13:25:24.712Z,15.20
2023-05-19T13:27:52.280Z,15.30
2023-05-19T13:30:20.954Z,15.42
2023-05-19T13:32:48.546Z,15.51
2023-05-19T13:35:16.188Z,15.55
2023-05-19T13:37:43.880Z,15.54
2023-05-19T13:40:11.642Z,15.45
2023-05-19T13:42:39.233Z,15.41
2023-05-19T13:45:06.780Z,15.41
2023-05-19T13:47:34.392Z,15.44
2023-05-19T13:50:02.364Z,15.51
2023-05-19T13:52:30.576Z,15.57
2023-05-19T13:54:58.267Z,15.67
2023-05-19T13:57:26.482Z,15.76
2023-05-19T14:00:01.648Z,15.74
2023-05-19T14:02:30.895Z,15.72
2023-05-19T14:04:58.825Z,15.72
2023-05-19T14:07:28.599Z,15.73
2023-05-19T14:09:56.393Z,15.73
2023-05-19T14:12:30.945Z,15.73
2023-05-19T14:15:04.349Z,15.57
2023-05-19T14:17:32.645Z,15.42
2023-05-19T14:20:00.289Z,15.33
2023-05-19T14:22:27.893Z,15.28
2023-05-19T14:24:55.405Z,15.27
2023-05-19T14:27:22.967Z,15.28
2023-05-19T14:29:50.662Z,15.30
2023-05-19T14:32:18.581Z,15.32
2023-05-19T14:34:46.203Z,15.38
2023-05-19T14:37:13.759Z,15.44
2023-05-19T14:39:41.301Z,15.42
2023-05-19T14:42:08.810Z,15.45
2023-05-19T14:44:37.651Z,15.47
2023-05-19T14:47:07.383Z,15.47
2023-05-19T14:49:35.077Z,15.47
2023-05-19T14:52:03.163Z,15.43
2023-05-19T14:54:30.712Z,15.46
2023-05-19T14:56:58.283Z,15.51
2023-05-19T14:59:26.010Z,15.54
2023-05-19T15:01:53.506Z,15.58
2023-05-19T15:04:21.450Z,15.51
2023-05-19T15:06:58.130Z,15.53
2023-05-19T15:09:36.665Z,15.54
2023-05-19T15:12:04.316Z,15.50
2023-05-19T15:14:31.897Z,15.45
2023-05-19T15:16:59.498Z,15.41
2023-05-19T15:19:27.364Z,15.47
2023-05-19T15:21:55.240Z,15.54
2023-05-19T15:24:22.781Z,15.68
2023-05-19T15:26:50.444Z,15.84
2023-05-19T15:29:36.847Z,15.95
2023-05-19T15:32:04.916Z,16.00
2023-05-19T15:34:32.468Z,16.08
2023-05-19T15:37:07.023Z,16.09
2023-05-19T15:39:35.078Z,16.06
2023-05-19T15:42:02.604Z,16.01
2023-05-19T15:44:30.189Z,15.98
2023-05-19T15:46:57.904Z,15.92
2023-05-19T15:49:25.482Z,15.84
2023-05-19T15:51:53.077Z,15.75
2023-05-19T15:54:20.675Z,15.71
2023-05-19T15:56:48.310Z,15.75
2023-05-19T15:59:15.889Z,15.79
2023-05-19T16:01:43.527Z,15.82
2023-05-19T16:04:11.219Z,15.72
2023-05-19T16:06:38.877Z,15.62
2023-05-19T16:09:06.783Z,15.61
2023-05-19T16:11:34.359Z,15.58
2023-05-19T16:14:01.935Z,15.66
2023-05-19T16:16:29.716Z,15.60
2023-05-19T16:18:57.341Z,15.48
2023-05-19T16:21:24.857Z,15.46
2023-05-19T16:23:52.412Z,15.40
2023-05-19T16:26:20.162Z,15.47
2023-05-19T16:28:47.723Z,15.51
2023-05-19T16:31:15.361Z,15.43
2023-05-19T16:33:42.995Z,15.39
2023-05-19T16:36:10.772Z,15.37
2023-05-19T16:38:38.317Z,15.35
2023-05-19T16:41:05.995Z,15.29
2023-05-19T16:43:33.976Z,15.23
2023-05-19T16:46:04.206Z,15.27
2023-05-19T16:48:31.811Z,15.32
2023-05-19T16:50:59.832Z,15.24
2023-05-19T16:53:27.587Z,15.09
2023-05-19T16:55:55.164Z,15.03
2023-05-19T16:58:22.770Z,14.95
2023-05-19T17:00:50.406Z,14.94
2023-05-19T17:03:18.358Z,14.86
2023-05-19T17:05:46.226Z,14.61
2023-05-19T17:08:13.878Z,14.42
2023-05-19T17:10:41.591Z,14.21
2023-05-19T17:13:09.208Z,14.00
2023-05-19T17:15:37.489Z,13.91
2023-05-19T17:18:05.780Z,13.88
2023-05-19T17:20:33.576Z,13.83
2023-05-19T17:23:01.318Z,13.75
2023-05-19T17:25:28.818Z,13.69
2023-05-19T17:27:56.436Z,13.59
2023-05-19T17:30:24.198Z,13.51
2023-05-19T17:32:52.264Z,13.48
2023-05-19T17:35:19.937Z,13.43
2023-05-19T17:37:47.597Z,13.34
2023-05-19T17:40:15.113Z,13.22
2023-05-19T17:42:42.624Z,13.17
2023-05-19T17:45:12.408Z,13.12
2023-05-19T17:47:40.034Z,13.02
2023-05-19T17:50:07.673Z,12.85
2023-05-19T17:52:35.215Z,12.76
2023-05-19T17:55:02.914Z,12.68
2023-05-19T17:57:31.074Z,12.58
2023-05-19T17:59:58.646Z,12.51
2023-05-19T18:02:26.475Z,12.36
2023-05-19T18:04:54.467Z,12.26
2023-05-19T18:07:22.199Z,12.16
2023-05-19T18:09:51.106Z,12.05
2023-05-19T18:12:18.864Z,11.92
2023-05-19T18:14:46.445Z,11.83
2023-05-19T18:17:13.931Z,11.78
2023-05-19T18:19:41.474Z,11.73
2023-05-19T18:22:13.069Z,11.70
2023-05-19T18:24:40.713Z,11.62
2023-05-19T18:27:08.226Z,11.58
2023-05-19T18:29:35.860Z,11.56
2023-05-19T18:32:03.491Z,11.48
2023-05-19T18:34:31.186Z,11.40
2023-05-19T18:36:58.823Z,11.28
2023-05-19T18:39:28.566Z,11.21
2023-05-19T18:41:56.875Z,11.16
2023-05-19T18:44:24.454Z,11.11
2023-05-19T18:46:52.049Z,11.03
2023-05-19T18:49:20.023Z,10.94
2023-05-19T18:51:48.562Z,10.86
2023-05-19T18:54:16.178Z,10.79
2023-05-19T18:56:43.743Z,10.79
2023-05-19T18:59:11.552Z,10.80
2023-05-19T19:01:39.190Z,10.78
2023-05-19T19:04:07.146Z,10.74
2023-05-19T19:06:34.793Z,10.74
2023-05-19T19:09:02.395Z,10.73
2023-05-19T19:11:30.213Z,10.71
2023-05-19T19:13:57.977Z,10.67
2023-05-19T19:16:25.473Z,10.65
2023-05-19T19:18:53.438Z,10.62
2023-05-19T19:21:24.070Z,10.56
2023-05-19T19:23:51.656Z,10.52
2023-05-19T19:26:19.182Z,10.51
2023-05-19T19:28:47.222Z,10.50
2023-05-19T19:31:14.848Z,10.51
2023-05-19T19:33:43.509Z,10.60
2023-05-19T19:36:11.413Z,10.65
2023-05-19T19:38:38.906Z,10.52
2023-05-19T19:41:06.478Z,10.45
2023-05-19T19:43:34.057Z,10.42
2023-05-19T19:46:01.725Z,10.43
2023-05-19T19:48:29.355Z,10.44
2023-05-19T19:50:56.973Z,10.42
2023-05-19T19:53:24.889Z,10.39
2023-05-19T19:55:53.332Z,10.35
2023-05-19T19:58:21.152Z,10.39
2023-05-19T20:00:48.844Z,10.40
2023-05-19T20:03:16.421Z,10.42
2023-05-19T20:05:44.851Z,10.41
2023-05-19T20:08:13.489Z,10.38
2023-05-19T20:10:41.619Z,10.39
2023-05-19T20:13:09.536Z,10.39
2023-05-19T20:15:37.509Z,10.41
2023-05-19T20:18:05.098Z,10.41
2023-05-19T20:20:33.048Z,10.42
2023-05-19T20:23:00.947Z,10.41
2023-05-19T20:25:28.647Z,10.37
2023-05-19T20:27:56.266Z,10.38
2023-05-19T20:30:24.112Z,10.36
2023-05-19T20:32:51.634Z,10.36
2023-05-19T20:35:19.186Z,10.36
2023-05-19T20:37:48.004Z,10.35
2023-05-19T20:40:15.640Z,10.34
2023-05-19T20:42:43.208Z,10.31
2023-05-19T20:45:10.721Z,10.27
2023-05-19T20:47:38.331Z,10.20
2023-05-19T20:50:06.154Z,10.14
2023-05-19T20:52:33.687Z,10.09
2023-05-19T20:55:01.278Z,10.07
2023-05-19T20:57:29.055Z,10.05
2023-05-19T20:59:56.630Z,10.05
2023-05-19T21:02:24.181Z,10.05
2023-05-19T21:04:51.763Z,10.01
2023-05-19T21:07:19.569Z,9.97
2023-05-19T21:09:50.237Z,9.95
2023-05-19T21:12:18.492Z,9.92
2023-05-19T21:14:47.493Z,9.88
2023-05-19T21:17:15.268Z,9.87
2023-05-19T21:19:42.787Z,9.86
2023-05-19T21:22:10.291Z,9.84
2023-05-19T21:24:37.848Z,9.81
2023-05-19T21:27:05.433Z,9.78
2023-05-19T21:29:32.930Z,9.77
2023-05-19T21:32:01.163Z,9.76
2023-05-19T21:34:28.699Z,9.73
2023-05-19T21:36:56.709Z,9.72
2023-05-19T21:39:24.218Z,9.73
2023-05-19T21:41:51.792Z,9.75
2023-05-19T21:44:19.444Z,9.74
2023-05-19T21:46:47.503Z,9.72
2023-05-19T21:49:15.118Z,9.71
2023-05-19T21:51:42.606Z,9.70
2023-05-19T21:54:10.182Z,9.66
2023-05-19T21:56:38.085Z,9.67
2023-05-19T21:59:05.618Z,9.66
2023-05-19T22:01:44.855Z,9.64
2023-05-19T22:04:13.627Z,9.61
2023-05-19T22:06:41.324Z,9.57
2023-05-19T22:09:09.165Z,9.57
2023-05-19T22:11:36.970Z,9.61
2023-05-19T22:14:04.538Z,9.65
2023-05-19T22:16:32.151Z,9.64
2023-05-19T22:19:00.181Z,9.59
2023-05-19T22:21:28.042Z,9.57
2023-05-19T22:23:55.758Z,9.55
2023-05-19T22:26:23.295Z,9.49
2023-05-19T22:28:50.780Z,9.47
2023-05-19T22:31:18.486Z,9.43
2023-05-19T22:33:46.220Z,9.41
2023-05-19T22:36:16.025Z,9.39
2023-05-19T22:38:43.574Z,9.41
2023-05-19T22:41:11.157Z,9.43
2023-05-19T22:43:57.368Z,9.45
2023-05-19T22:46:24.950Z,9.44
2023-05-19T22:48:52.455Z,9.42
2023-05-19T22:51:19.963Z,9.38
2023-05-19T22:53:48.749Z,9.36
2023-05-19T22:56:16.361Z,9.34
2023-05-19T22:58:44.184Z,9.34
2023-05-19T23:01:11.764Z,9.36
2023-05-19T23:03:39.318Z,9.34
2023-05-19T23:06:06.862Z,9.34
2023-05-19T23:08:34.454Z,9.33
2023-05-19T23:11:02.513Z,9.31
2023-05-19T23:13:30.024Z,9.31
2023-05-19T23:15:57.600Z,9.33
2023-05-19T23:18:25.147Z,9.35
2023-05-19T23:20:52.914Z,9.33
2023-05-19T23:23:20.544Z,9.28
2023-05-19T23:25:48.075Z,9.25
2023-05-19T23:28:15.639Z,9.23
2023-05-19T23:30:43.174Z,9.23
2023-05-19T23:33:10.697Z,9.23
2023-05-19T23:35:39.613Z,9.26
2023-05-19T23:38:07.128Z,9.31
2023-05-19T23:40:34.677Z,9.35
2023-05-19T23:43:02.231Z,9.36
2023-05-19T23:45:29.849Z,9.36
2023-05-19T23:47:57.388Z,9.36
2023-05-19T23:50:24.992Z,9.38
2023-05-19T23:52:52.550Z,9.41
2023-05-19T23:55:20.242Z,9.45
2023-05-19T23:57:47.784Z,9.44
